createdAt,value
2022-12-27T00:55:32.529Z,95823.00
2022-12-27T00:56:33.504Z,95825.00
2022-12-27T00:57:33.454Z,95828.00
2022-12-27T00:58:38.396Z,95828.00
2022-12-27T00:59:33.411Z,95832.00
2022-12-27T01:00:33.456Z,95836.00
2022-12-27T01:01:33.440Z,95836.00
2022-12-27T01:02:33.363Z,95834.00
2022-12-27T01:03:33.381Z,95840.00
2022-12-27T01:04:33.339Z,95840.00
2022-12-27T01:05:33.322Z,95840.00
2022-12-27T01:06:33.291Z,95842.00
2022-12-27T01:07:33.272Z,95844.00
2022-12-27T01:08:33.249Z,95846.00
2022-12-27T01:09:33.236Z,95850.00
2022-12-27T01:10:33.209Z,95854.00
2022-12-27T01:11:33.299Z,95858.00
2022-12-27T01:12:33.183Z,95858.00
2022-12-27T01:13:33.158Z,95856.00
2022-12-27T01:14:33.135Z,95862.00
2022-12-27T01:15:33.132Z,95870.00
2022-12-27T01:16:33.179Z,95872.00
2022-12-27T01:17:33.080Z,95877.00
2022-12-27T01:18:33.061Z,95877.00
2022-12-27T01:19:33.039Z,95879.00
2022-12-27T01:20:33.021Z,95879.00
2022-12-27T01:21:32.998Z,95879.00
2022-12-27T01:22:32.985Z,95881.00
2022-12-27T01:23:32.953Z,95883.00
2022-12-27T01:24:32.933Z,95885.00
2022-12-27T01:25:32.916Z,95887.00
2022-12-27T01:26:32.893Z,95889.00
2022-12-27T01:27:32.904Z,95887.00
2022-12-27T01:28:32.850Z,95889.00
2022-12-27T01:29:32.828Z,95893.00
2022-12-27T01:30:32.802Z,95899.00
2022-12-27T01:31:32.808Z,95901.00
2022-12-27T01:32:32.765Z,95899.00
2022-12-27T01:33:32.751Z,95901.00
2022-12-27T01:34:32.746Z,95903.00
2022-12-27T01:35:32.723Z,95903.00
2022-12-27T01:36:32.692Z,95903.00
2022-12-27T01:37:32.677Z,95901.00
2022-12-27T01:38:32.646Z,95901.00
2022-12-27T01:39:32.628Z,95899.00
2022-12-27T01:40:32.615Z,95899.00
2022-12-27T01:41:32.588Z,95899.00
2022-12-27T01:42:32.565Z,95901.00
2022-12-27T01:43:32.651Z,95901.00
2022-12-27T01:44:32.516Z,95897.00
2022-12-27T01:45:32.521Z,95899.00
2022-12-27T01:46:32.492Z,95901.00
2022-12-27T01:47:32.473Z,95903.00
2022-12-27T01:48:32.442Z,95903.00
2022-12-27T01:49:32.429Z,95901.00
2022-12-27T01:50:32.417Z,95905.00
2022-12-27T01:51:32.395Z,95903.00
2022-12-27T01:52:35.083Z,95907.00
2022-12-27T01:53:32.355Z,95907.00
2022-12-27T01:54:32.342Z,95909.00
2022-12-27T01:55:32.325Z,95911.00
2022-12-27T01:56:32.311Z,95915.00
2022-12-27T01:57:32.281Z,95913.00
2022-12-27T01:58:32.255Z,95911.00
2022-12-27T01:59:32.263Z,95907.00
2022-12-27T02:00:32.222Z,95907.00
2022-12-27T02:01:32.272Z,95901.00
2022-12-27T02:02:32.277Z,95903.00
2022-12-27T02:03:32.177Z,95905.00
2022-12-27T02:04:32.159Z,95913.00
2022-12-27T02:05:32.130Z,95915.00
2022-12-27T02:06:32.114Z,95915.00
2022-12-27T02:07:32.092Z,95915.00
2022-12-27T02:08:32.062Z,95911.00
2022-12-27T02:09:32.047Z,95909.00
2022-12-27T02:10:32.018Z,95909.00
2022-12-27T02:11:31.991Z,95907.00
2022-12-27T02:12:31.977Z,95909.00
2022-12-27T02:13:31.967Z,95909.00
2022-12-27T02:14:31.922Z,95911.00
2022-12-27T02:15:31.931Z,95915.00
2022-12-27T02:16:31.918Z,95913.00
2022-12-27T02:17:31.855Z,95915.00
2022-12-27T02:18:31.845Z,95913.00
2022-12-27T02:19:31.814Z,95917.00
2022-12-27T02:20:31.797Z,95919.00
2022-12-27T02:21:31.767Z,95926.00
2022-12-27T02:22:31.741Z,95926.00
2022-12-27T02:23:37.703Z,95932.00
2022-12-27T02:24:31.709Z,95932.00
2022-12-27T02:25:31.678Z,95938.00
2022-12-27T02:26:31.658Z,95942.00
2022-12-27T02:27:31.631Z,95942.00
2022-12-27T02:28:31.613Z,95942.00
2022-12-27T02:29:31.597Z,95946.00
2022-12-27T02:30:31.613Z,95944.00
2022-12-27T02:31:31.598Z,95952.00
2022-12-27T02:32:31.520Z,95954.00
2022-12-27T02:33:31.499Z,95952.00
2022-12-27T02:34:31.475Z,95950.00
2022-12-27T02:35:31.458Z,95946.00
2022-12-27T02:36:31.435Z,95948.00
2022-12-27T02:37:31.412Z,95946.00
2022-12-27T02:38:31.413Z,95944.00
2022-12-27T02:39:31.382Z,95942.00
2022-12-27T02:40:31.359Z,95940.00
2022-12-27T02:41:31.333Z,95940.00
2022-12-27T02:42:31.312Z,95942.00
2022-12-27T02:43:31.293Z,95944.00
2022-12-27T02:44:31.261Z,95944.00
2022-12-27T02:45:31.238Z,95942.00
2022-12-27T02:46:31.285Z,95942.00
2022-12-27T02:47:31.224Z,95944.00
2022-12-27T02:48:31.170Z,95944.00
2022-12-27T02:49:31.144Z,95944.00
2022-12-27T02:50:31.139Z,95946.00
2022-12-27T02:51:31.100Z,95946.00
2022-12-27T02:52:31.081Z,95946.00
2022-12-27T02:53:31.057Z,95944.00
2022-12-27T02:54:31.036Z,95940.00
2022-12-27T02:55:31.009Z,95938.00
2022-12-27T02:56:30.986Z,95944.00
2022-12-27T02:57:30.963Z,95944.00
2022-12-27T02:58:30.937Z,95948.00
2022-12-27T02:59:30.914Z,95948.00
2022-12-27T03:18:29.501Z,95952.00
2022-12-27T04:31:29.131Z,96073.00
2022-12-27T04:49:28.702Z,96113.00
2022-12-27T04:50:28.682Z,96115.00
2022-12-27T04:51:28.672Z,96113.00
2022-12-27T04:52:28.638Z,96119.00
2022-12-27T04:53:28.632Z,96124.00
2022-12-27T04:54:28.600Z,96128.00
2022-12-27T04:55:28.612Z,96130.00
2022-12-27T04:56:28.566Z,96124.00
2022-12-27T04:57:28.544Z,96128.00
2022-12-27T04:58:28.557Z,96138.00
2022-12-27T04:59:28.514Z,96113.00
2022-12-27T05:00:28.502Z,96132.00
2022-12-27T05:01:28.576Z,96132.00
2022-12-27T05:02:28.660Z,96122.00
2022-12-27T05:03:28.498Z,96128.00
2022-12-27T05:04:28.431Z,96122.00
2022-12-27T05:05:28.403Z,96128.00
2022-12-27T05:06:28.387Z,96126.00
2022-12-27T05:07:28.373Z,96136.00
2022-12-27T05:08:28.353Z,96142.00
2022-12-27T05:09:28.332Z,96144.00
2022-12-27T05:10:28.309Z,96146.00
2022-12-27T05:11:28.310Z,96150.00
2022-12-27T05:12:28.269Z,96150.00
2022-12-27T05:13:28.253Z,96142.00
2022-12-27T05:14:28.233Z,96150.00
2022-12-27T05:15:28.222Z,96152.00
2022-12-27T05:16:28.234Z,96158.00
2022-12-27T05:17:28.170Z,96164.00
2022-12-27T05:18:28.163Z,96166.00
2022-12-27T05:19:28.138Z,96169.00
2022-12-27T05:20:28.129Z,96171.00
2022-12-27T05:21:28.100Z,96173.00
2022-12-27T05:22:28.078Z,96169.00
2022-12-27T05:23:28.065Z,96168.00
2022-12-27T05:24:28.037Z,96164.00
2022-12-27T05:25:28.015Z,96164.00
2022-12-27T05:26:27.997Z,96166.00
2022-12-27T05:27:28.003Z,96169.00
2022-12-27T05:28:27.962Z,96189.00
2022-12-27T05:29:27.946Z,96183.00
2022-12-27T05:30:27.951Z,96187.00
2022-12-27T05:31:27.961Z,96189.00
2022-12-27T05:32:27.900Z,96193.00
2022-12-27T05:33:27.872Z,96193.00
2022-12-27T05:34:27.849Z,96197.00
2022-12-27T05:35:27.833Z,96197.00
2022-12-27T05:36:27.823Z,96195.00
2022-12-27T05:37:27.798Z,96189.00
2022-12-27T05:38:27.762Z,96189.00
2022-12-27T05:39:27.748Z,96187.00
2022-12-27T05:40:27.720Z,96187.00
2022-12-27T05:41:27.696Z,96187.00
2022-12-27T05:42:27.663Z,96185.00
2022-12-27T05:43:27.669Z,96189.00
2022-12-27T05:44:27.652Z,96189.00
2022-12-27T05:45:27.588Z,96191.00
2022-12-27T05:46:27.587Z,96197.00
2022-12-27T05:47:27.553Z,96195.00
2022-12-27T05:48:27.521Z,96197.00
2022-12-27T05:49:27.489Z,96203.00
2022-12-27T05:50:27.485Z,96205.00
2022-12-27T05:51:27.448Z,96209.00
2022-12-27T05:52:27.426Z,96213.00
2022-12-27T05:53:27.413Z,96211.00
2022-12-27T05:54:27.383Z,96213.00
2022-12-27T05:55:27.359Z,96215.00
2022-12-27T05:56:27.384Z,96215.00
2022-12-27T05:57:27.308Z,96217.00
2022-12-27T05:58:27.301Z,96221.00
2022-12-27T05:59:27.331Z,96221.00
2022-12-27T06:00:27.255Z,96221.00
2022-12-27T06:01:27.309Z,96219.00
2022-12-27T06:02:27.434Z,96224.00
2022-12-27T06:03:27.295Z,96226.00
2022-12-27T06:04:27.180Z,96226.00
2022-12-27T06:05:27.176Z,96230.00
2022-12-27T06:06:27.149Z,96230.00
2022-12-27T06:07:27.144Z,96234.00
2022-12-27T06:08:27.114Z,96232.00
2022-12-27T06:09:27.098Z,96234.00
2022-12-27T06:10:27.084Z,96236.00
2022-12-27T06:11:27.065Z,96240.00
2022-12-27T06:12:27.048Z,96240.00
2022-12-27T06:13:27.031Z,96238.00
2022-12-27T06:14:27.019Z,96236.00
2022-12-27T06:15:27.046Z,96234.00
2022-12-27T06:16:27.053Z,96238.00
2022-12-27T06:17:26.963Z,96242.00
2022-12-27T06:18:26.939Z,96244.00
2022-12-27T06:19:26.916Z,96244.00
2022-12-27T06:20:26.906Z,96242.00
2022-12-27T06:21:26.893Z,96240.00
2022-12-27T06:22:26.873Z,96240.00
2022-12-27T06:23:26.852Z,96240.00
2022-12-27T06:24:26.835Z,96240.00
2022-12-27T06:25:26.808Z,96240.00
2022-12-27T06:26:26.799Z,96238.00
2022-12-27T06:27:26.771Z,96242.00
2022-12-27T06:28:26.750Z,96242.00
2022-12-27T06:29:26.726Z,96242.00
2022-12-27T06:30:30.362Z,96244.00
2022-12-27T06:31:26.896Z,96246.00
2022-12-27T06:32:26.677Z,96244.00
2022-12-27T06:33:26.677Z,96246.00
2022-12-27T06:34:26.634Z,96244.00
2022-12-27T06:35:26.606Z,96244.00
2022-12-27T06:36:26.590Z,96242.00
2022-12-27T06:37:26.583Z,96244.00
2022-12-27T06:38:26.553Z,96244.00
2022-12-27T06:39:26.520Z,96244.00
2022-12-27T06:40:26.499Z,96246.00
2022-12-27T06:41:26.499Z,96248.00
2022-12-27T06:42:26.473Z,96248.00
2022-12-27T06:43:26.457Z,96248.00
2022-12-27T06:44:26.428Z,96252.00
2022-12-27T06:45:26.429Z,96256.00
2022-12-27T06:46:26.445Z,96260.00
2022-12-27T06:47:26.380Z,96262.00
2022-12-27T06:48:26.376Z,96264.00
2022-12-27T06:49:26.318Z,96264.00
2022-12-27T06:50:26.295Z,96262.00
2022-12-27T06:51:26.272Z,96262.00
2022-12-27T06:52:26.250Z,96262.00
2022-12-27T06:53:26.229Z,96258.00
2022-12-27T06:54:26.217Z,96260.00
2022-12-27T06:55:26.182Z,96258.00
2022-12-27T06:56:26.166Z,96262.00
2022-12-27T06:57:26.738Z,96260.00
2022-12-27T06:58:26.116Z,96258.00
2022-12-27T06:59:26.099Z,96260.00
2022-12-27T07:00:26.092Z,96260.00
2022-12-27T07:01:26.198Z,96256.00
2022-12-27T07:02:26.143Z,96254.00
2022-12-27T07:03:26.058Z,96256.00
2022-12-27T07:04:25.989Z,96262.00
2022-12-27T07:05:25.968Z,96268.00
2022-12-27T07:06:25.944Z,96271.00
2022-12-27T07:07:25.927Z,96273.00
2022-12-27T07:08:25.907Z,96269.00
2022-12-27T07:09:25.880Z,96273.00
2022-12-27T07:10:25.877Z,96275.00
2022-12-27T07:11:25.844Z,96275.00
2022-12-27T07:12:25.836Z,96273.00
2022-12-27T07:13:25.819Z,96275.00
2022-12-27T07:14:25.803Z,96277.00
2022-12-27T07:15:25.794Z,96281.00
2022-12-27T07:16:25.885Z,96283.00
2022-12-27T07:17:25.756Z,96281.00
2022-12-27T07:18:25.730Z,96283.00
2022-12-27T07:19:25.742Z,96285.00
2022-12-27T07:20:25.698Z,96287.00
2022-12-27T07:21:25.712Z,96287.00
2022-12-27T07:22:25.666Z,96285.00
2022-12-27T07:23:25.645Z,96285.00
2022-12-27T07:24:25.627Z,96283.00
2022-12-27T07:25:25.607Z,96285.00
2022-12-27T07:26:25.594Z,96287.00
2022-12-27T07:27:25.589Z,96287.00
2022-12-27T07:28:25.559Z,96289.00
2022-12-27T07:29:25.537Z,96291.00
2022-12-27T07:30:25.518Z,96289.00
2022-12-27T07:31:25.579Z,96293.00
2022-12-27T07:32:25.480Z,96287.00
2022-12-27T07:33:25.457Z,96291.00
2022-12-27T07:34:25.443Z,96291.00
2022-12-27T07:35:25.450Z,96293.00
2022-12-27T07:36:25.440Z,96295.00
2022-12-27T07:37:25.392Z,96299.00
2022-12-27T07:38:25.361Z,96303.00
2022-12-27T07:39:25.336Z,96307.00
2022-12-27T07:40:25.320Z,96307.00
2022-12-27T07:41:25.294Z,96307.00
2022-12-27T07:42:25.264Z,96309.00
2022-12-27T07:43:25.243Z,96305.00
2022-12-27T07:44:25.222Z,96301.00
2022-12-27T07:45:25.200Z,96301.00
2022-12-27T07:46:25.163Z,96299.00
2022-12-27T07:47:25.144Z,96303.00
2022-12-27T07:48:25.117Z,96305.00
2022-12-27T07:49:25.096Z,96305.00
2022-12-27T07:50:25.067Z,96305.00
2022-12-27T07:51:25.084Z,96305.00
2022-12-27T07:52:25.021Z,96307.00
2022-12-27T07:53:25.016Z,96307.00
2022-12-27T07:54:24.983Z,96307.00
2022-12-27T07:55:24.946Z,96307.00
2022-12-27T07:56:26.519Z,96301.00
2022-12-27T07:57:24.897Z,96303.00
2022-12-27T07:58:24.873Z,96299.00
2022-12-27T07:59:24.853Z,96299.00
2022-12-27T08:00:24.829Z,96303.00
2022-12-27T08:01:24.955Z,96303.00
2022-12-27T08:02:25.026Z,96303.00
2022-12-27T08:03:24.857Z,96305.00
2022-12-27T08:04:25.266Z,96305.00
2022-12-27T08:05:27.905Z,96305.00
2022-12-27T08:06:24.722Z,96309.00
2022-12-27T08:07:24.725Z,96307.00
2022-12-27T08:08:24.679Z,96309.00
2022-12-27T08:09:24.648Z,96315.00
2022-12-27T08:10:24.624Z,96315.00
2022-12-27T08:11:24.603Z,96316.00
2022-12-27T08:12:24.586Z,96315.00
2022-12-27T08:13:24.560Z,96316.00
2022-12-27T08:14:24.558Z,96316.00
2022-12-27T08:15:24.510Z,96316.00
2022-12-27T08:16:24.559Z,96316.00
2022-12-27T08:17:24.468Z,96315.00
2022-12-27T08:18:24.443Z,96316.00
2022-12-27T08:19:24.433Z,96313.00
2022-12-27T08:20:24.400Z,96313.00
2022-12-27T08:21:24.390Z,96313.00
2022-12-27T08:22:24.359Z,96309.00
2022-12-27T08:23:24.356Z,96309.00
2022-12-27T08:24:24.323Z,96309.00
2022-12-27T08:25:24.299Z,96309.00
2022-12-27T08:26:24.273Z,96313.00
2022-12-27T08:27:24.281Z,96313.00
2022-12-27T08:28:24.241Z,96315.00
2022-12-27T08:29:24.212Z,96315.00
2022-12-27T08:30:24.196Z,96311.00
2022-12-27T08:31:24.237Z,96313.00
2022-12-27T08:32:24.156Z,96313.00
2022-12-27T08:33:24.154Z,96316.00
2022-12-27T08:34:24.121Z,96318.00
2022-12-27T08:35:51.620Z,96320.00
2022-12-27T08:37:24.152Z,96322.00
2022-12-27T08:38:24.055Z,96320.00
2022-12-27T08:39:24.064Z,96320.00
2022-12-27T08:40:24.019Z,96320.00
2022-12-27T08:41:24.006Z,96322.00
2022-12-27T08:42:23.976Z,96322.00
2022-12-27T08:43:23.958Z,96320.00
2022-12-27T08:44:23.939Z,96322.00
2022-12-27T08:45:23.908Z,96326.00
2022-12-27T08:46:23.947Z,96332.00
2022-12-27T08:47:23.862Z,96328.00
2022-12-27T08:48:23.910Z,96328.00
2022-12-27T08:49:23.822Z,96328.00
2022-12-27T08:50:23.799Z,96328.00
2022-12-27T08:51:33.085Z,96332.00
2022-12-27T08:52:24.278Z,96338.00
2022-12-27T08:53:23.726Z,96338.00
2022-12-27T08:54:23.710Z,96342.00
2022-12-27T08:55:23.715Z,96346.00
2022-12-27T08:56:23.653Z,96346.00
2022-12-27T08:57:23.633Z,96346.00
2022-12-27T08:58:23.618Z,96348.00
2022-12-27T08:59:23.594Z,96348.00
2022-12-27T09:00:23.576Z,96348.00
2022-12-27T09:01:23.682Z,96352.00
2022-12-27T09:02:23.639Z,96348.00
2022-12-27T09:03:23.524Z,96342.00
2022-12-27T09:04:23.493Z,96338.00
2022-12-27T09:05:23.456Z,96334.00
2022-12-27T09:06:23.450Z,96332.00
2022-12-27T09:07:23.408Z,96328.00
2022-12-27T09:08:23.382Z,96330.00
2022-12-27T09:09:23.391Z,96332.00
2022-12-27T09:10:23.329Z,96334.00
2022-12-27T09:11:23.346Z,96334.00
2022-12-27T09:12:23.282Z,96334.00
2022-12-27T09:13:23.267Z,96336.00
2022-12-27T09:14:23.251Z,96336.00
2022-12-27T09:15:23.207Z,96336.00
2022-12-27T09:16:23.185Z,96336.00
2022-12-27T09:17:23.176Z,96338.00
2022-12-27T09:18:23.149Z,96338.00
2022-12-27T09:19:23.298Z,96340.00
2022-12-27T09:20:23.102Z,96340.00
2022-12-27T09:21:23.080Z,96346.00
2022-12-27T09:22:23.047Z,96346.00
2022-12-27T09:23:23.020Z,96348.00
2022-12-27T09:24:22.994Z,96348.00
2022-12-27T09:25:23.046Z,96350.00
2022-12-27T09:26:22.951Z,96350.00
2022-12-27T09:27:22.998Z,96346.00
2022-12-27T09:28:22.905Z,96350.00
2022-12-27T09:29:22.879Z,96350.00
2022-12-27T09:30:22.927Z,96350.00
2022-12-27T09:31:22.868Z,96352.00
2022-12-27T09:32:22.821Z,96354.00
2022-12-27T09:33:22.799Z,96354.00
2022-12-27T09:34:22.776Z,96354.00
2022-12-27T09:35:22.734Z,96352.00
2022-12-27T09:36:22.716Z,96354.00
2022-12-27T09:37:22.694Z,96358.00
2022-12-27T09:38:22.678Z,96360.00
2022-12-27T09:39:22.665Z,96362.00
2022-12-27T09:40:22.687Z,96360.00
2022-12-27T09:41:59.080Z,96360.00
2022-12-27T09:43:27.544Z,96362.00
2022-12-27T09:44:22.564Z,96360.00
2022-12-27T09:45:22.544Z,96358.00
2022-12-27T09:46:22.570Z,96360.00
2022-12-27T09:47:22.506Z,96362.00
2022-12-27T09:48:26.173Z,96365.00
2022-12-27T09:49:22.480Z,96363.00
2022-12-27T09:50:22.578Z,96365.00
2022-12-27T09:51:22.436Z,96367.00
2022-12-27T09:52:22.422Z,96367.00
2022-12-27T09:53:22.407Z,96367.00
2022-12-27T09:54:22.388Z,96365.00
2022-12-27T09:55:22.372Z,96367.00
2022-12-27T09:56:22.348Z,96365.00
2022-12-27T09:57:22.319Z,96363.00
2022-12-27T09:58:22.311Z,96363.00
2022-12-27T09:59:22.402Z,96362.00
2022-12-27T10:00:32.787Z,96363.00
2022-12-27T10:01:22.477Z,96365.00
2022-12-27T10:02:22.446Z,96367.00
2022-12-27T10:03:22.228Z,96367.00
2022-12-27T10:04:22.264Z,96373.00
2022-12-27T10:05:23.147Z,96367.00
2022-12-27T10:06:22.176Z,96363.00
2022-12-27T10:07:22.160Z,96363.00
2022-12-27T10:08:22.152Z,96360.00
2022-12-27T10:09:22.130Z,96363.00
2022-12-27T10:10:22.110Z,96365.00
2022-12-27T10:11:22.087Z,96365.00
2022-12-27T10:12:24.406Z,96363.00
2022-12-27T10:13:22.056Z,96363.00
2022-12-27T10:14:22.035Z,96362.00
2022-12-27T10:15:22.059Z,96362.00
2022-12-27T10:16:22.085Z,96363.00
2022-12-27T10:17:22.004Z,96363.00
2022-12-27T10:18:21.973Z,96367.00
2022-12-27T10:19:21.966Z,96365.00
2022-12-27T10:20:21.949Z,96358.00
2022-12-27T10:21:21.949Z,96354.00
2022-12-27T10:22:21.925Z,96354.00
2022-12-27T10:23:21.914Z,96346.00
2022-12-27T10:24:21.887Z,96348.00
2022-12-27T10:25:21.879Z,96348.00
2022-12-27T10:26:21.863Z,96352.00
2022-12-27T10:27:21.839Z,96352.00
2022-12-27T10:28:21.832Z,96350.00
2022-12-27T10:29:21.812Z,96352.00
2022-12-27T10:30:21.794Z,96350.00
2022-12-27T10:31:21.849Z,96348.00
2022-12-27T10:32:21.756Z,96346.00
2022-12-27T10:33:21.738Z,96346.00
2022-12-27T10:34:21.719Z,96348.00
2022-12-27T10:35:21.704Z,96352.00
2022-12-27T10:36:21.681Z,96346.00
2022-12-27T10:37:21.666Z,96344.00
2022-12-27T10:38:21.659Z,96344.00
2022-12-27T10:39:21.632Z,96342.00
2022-12-27T10:40:21.604Z,96340.00
2022-12-27T10:41:21.585Z,96338.00
2022-12-27T10:42:21.559Z,96338.00
2022-12-27T10:43:21.536Z,96338.00
2022-12-27T10:44:21.517Z,96336.00
2022-12-27T10:45:21.501Z,96338.00
2022-12-27T10:46:21.569Z,96342.00
2022-12-27T10:47:21.483Z,96342.00
2022-12-27T10:48:21.463Z,96344.00
2022-12-27T10:49:22.140Z,96346.00
2022-12-27T10:50:21.404Z,96346.00
2022-12-27T10:51:21.395Z,96350.00
2022-12-27T10:52:21.368Z,96354.00
2022-12-27T10:53:21.346Z,96354.00
2022-12-27T10:55:21.304Z,96352.00
2022-12-27T10:56:21.295Z,96350.00
2022-12-27T10:57:21.267Z,96354.00
2022-12-27T10:58:21.245Z,96352.00
2022-12-27T10:59:21.240Z,96348.00
2022-12-27T11:00:21.216Z,96350.00
2022-12-27T11:01:21.276Z,96350.00
2022-12-27T11:02:21.303Z,96348.00
2022-12-27T11:03:21.171Z,96346.00
2022-12-27T11:04:21.787Z,96346.00
2022-12-27T11:05:21.102Z,96348.00
2022-12-27T11:06:21.102Z,96346.00
2022-12-27T11:07:21.087Z,96346.00
2022-12-27T11:08:21.076Z,96344.00
2022-12-27T11:09:21.034Z,96344.00
2022-12-27T11:10:21.004Z,96348.00
2022-12-27T11:11:20.993Z,96338.00
2022-12-27T11:12:20.980Z,96334.00
2022-12-27T11:13:20.958Z,96330.00
2022-12-27T11:14:20.925Z,96334.00
2022-12-27T16:01:25.715Z,96269.00
2022-12-27T16:02:21.317Z,96269.00
2022-12-27T16:06:21.558Z,96268.00
2022-12-27T16:07:21.128Z,96268.00
2022-12-27T16:09:21.117Z,96266.00
2022-12-27T17:30:13.023Z,96264.00
2022-12-27T17:31:13.096Z,96268.00
2022-12-27T17:32:12.994Z,96264.00
2022-12-27T17:33:12.982Z,96269.00
2022-12-27T17:34:12.946Z,96268.00
2022-12-27T17:35:12.935Z,96269.00
2022-12-27T17:36:12.922Z,96271.00
2022-12-27T17:37:12.893Z,96268.00
2022-12-27T17:38:12.935Z,96268.00
2022-12-27T17:39:12.867Z,96268.00
2022-12-27T17:40:12.835Z,96268.00
2022-12-27T17:41:15.738Z,96268.00
2022-12-27T17:42:12.825Z,96269.00
2022-12-27T17:43:12.779Z,96269.00
2022-12-27T17:44:12.766Z,96271.00
2022-12-27T17:45:12.736Z,96269.00
2022-12-27T17:46:12.771Z,96269.00
2022-12-27T17:47:15.579Z,96269.00
2022-12-27T17:48:12.693Z,96269.00
2022-12-27T17:49:12.666Z,96271.00
2022-12-27T17:50:12.651Z,96271.00
2022-12-27T17:51:12.629Z,96273.00
2022-12-27T17:52:12.608Z,96273.00
2022-12-27T17:53:14.708Z,96269.00
2022-12-27T17:54:12.571Z,96269.00
2022-12-27T17:55:12.555Z,96269.00
2022-12-27T17:56:12.533Z,96273.00
2022-12-27T17:57:12.518Z,96273.00
2022-12-27T17:58:12.539Z,96273.00
2022-12-27T17:59:12.476Z,96273.00
2022-12-27T18:00:12.465Z,96271.00
2022-12-27T18:01:12.513Z,96271.00
2022-12-27T18:02:12.567Z,96271.00
2022-12-27T18:03:12.469Z,96271.00
2022-12-27T18:04:12.379Z,96273.00
2022-12-27T18:05:12.366Z,96271.00
2022-12-27T18:06:12.337Z,96275.00
2022-12-27T18:07:12.324Z,96277.00
2022-12-27T18:08:12.303Z,96275.00
2022-12-27T18:09:12.280Z,96279.00
2022-12-27T18:10:12.260Z,96275.00
2022-12-27T18:11:12.243Z,96277.00
2022-12-27T18:12:12.222Z,96279.00
2022-12-27T18:13:12.203Z,96277.00
2022-12-27T18:14:12.201Z,96275.00
2022-12-27T18:15:12.172Z,96271.00
2022-12-27T18:16:12.186Z,96269.00
2022-12-27T18:17:12.126Z,96269.00
2022-12-27T18:18:12.102Z,96268.00
2022-12-27T18:19:12.084Z,96266.00
2022-12-27T18:20:12.061Z,96266.00
2022-12-27T18:21:12.042Z,96266.00
2022-12-27T18:22:12.028Z,96266.00
2022-12-27T18:23:12.020Z,96264.00
2022-12-27T18:24:11.994Z,96262.00
2022-12-27T18:25:11.974Z,96262.00
2022-12-27T18:26:13.357Z,96260.00
2022-12-27T18:27:11.943Z,96260.00
2022-12-27T18:28:11.917Z,96260.00
2022-12-27T18:29:11.908Z,96258.00
2022-12-27T18:30:11.906Z,96256.00
2022-12-27T18:31:12.004Z,96254.00
2022-12-27T18:32:11.934Z,96252.00
2022-12-27T18:33:11.834Z,96252.00
2022-12-27T18:34:11.803Z,96252.00
2022-12-27T18:35:11.785Z,96252.00
2022-12-27T18:36:11.765Z,96252.00
2022-12-27T18:37:11.750Z,96250.00
2022-12-27T18:38:11.744Z,96250.00
2022-12-27T18:39:11.712Z,96248.00
2022-12-27T18:40:11.688Z,96246.00
2022-12-27T18:41:11.663Z,96246.00
2022-12-27T18:42:11.660Z,96244.00
2022-12-27T18:43:11.632Z,96244.00
2022-12-27T18:44:11.612Z,96242.00
2022-12-27T18:45:11.587Z,96242.00
2022-12-27T18:46:11.642Z,96240.00
2022-12-27T18:47:11.552Z,96238.00
2022-12-27T18:48:11.539Z,96238.00
2022-12-27T18:49:11.510Z,96238.00
2022-12-27T18:50:11.496Z,96236.00
2022-12-27T18:51:11.477Z,96234.00
2022-12-27T18:52:11.454Z,96234.00
2022-12-27T18:53:11.441Z,96234.00
2022-12-27T18:54:11.427Z,96234.00
2022-12-27T18:55:11.400Z,96234.00
2022-12-27T18:56:11.384Z,96234.00
2022-12-27T18:57:11.365Z,96232.00
2022-12-27T18:58:16.525Z,96230.00
2022-12-27T18:59:12.127Z,96228.00
2022-12-27T19:00:11.310Z,96228.00
2022-12-27T19:01:11.325Z,96228.00
2022-12-27T19:02:11.421Z,96230.00
2022-12-27T19:03:11.283Z,96232.00
2022-12-27T19:04:11.222Z,96232.00
2022-12-27T19:05:11.200Z,96232.00
2022-12-27T19:06:11.184Z,96228.00
2022-12-27T19:07:11.163Z,96230.00
2022-12-27T19:08:11.154Z,96230.00
2022-12-27T19:09:11.142Z,96230.00
2022-12-27T19:10:11.097Z,96230.00
2022-12-27T19:11:11.087Z,96226.00
2022-12-27T19:12:11.066Z,96228.00
2022-12-27T19:13:11.056Z,96226.00
2022-12-27T19:14:11.039Z,96224.00
2022-12-27T19:15:11.029Z,96222.00
2022-12-27T19:16:11.101Z,96222.00
2022-12-27T19:17:11.592Z,96222.00
2022-12-27T19:18:10.995Z,96221.00
2022-12-27T19:19:10.946Z,96221.00
2022-12-27T19:20:10.948Z,96221.00
2022-12-27T19:21:10.911Z,96217.00
